Impacts METAR Board INFO
IDs:

KMEM - Memphis Intl, TN, US

Updated at: 0419 UTC 18 Jan 2018
Potential Impact None Slight Moderate High
Time17/16Z 17/17Z 17/18Z 17/19Z 17/20Z 17/21Z 17/22Z 17/23Z 18/00Z 18/01Z 18/02Z 18/03Z 18/04Z
VIS10 10 10 10 10 10 10 10 10 10 10 10 10
CIG-- -- -- -- -- -- -- -- -- -- -- -- --
CoverSCTSCTFEWFEWCLRCLRCLRCLRCLRCLRCLRCLRCLR
FltCatVFRVFRVFRVFRVFRVFRVFRVFRVFRVFRVFRVFRVFR
WX--------------------------
WDir200300290300320270300300300000
WSpd8 0 4 6 5 3 6 6 6 4 0 0 0
WGst-- -- -- -- -- -- -- -- -- -- -- -- --
Raw hourly METARs
KMEM 171554Z 02008KT 10SM SCT018 SCT200 M10/M14 A3077 RMK AO2 SLP425 T11001144 $
KMEM 171654Z 00000KT 10SM SCT018 M08/M14 A3076 RMK AO2 SLP422 T10831139 $
KMEM 171754Z 30004KT 10SM FEW017 M08/M13 A3073 RMK AO2 SLP413 4/001 T10781128 11072 21139 58002 $
KMEM 171854Z 29006KT 10SM FEW017 M07/M12 A3071 RMK AO2 SLP404 T10671122 $
KMEM 171954Z 30005KT 10SM CLR M07/M12 A3069 RMK AO2 SLP399 T10671122 $
KMEM 172054Z 32003KT 10SM CLR M06/M12 A3068 RMK AO2 SLP393 T10611117 56020 $
KMEM 172154Z 27006KT 10SM CLR M06/M12 A3067 RMK AO2 SLP392 T10611117 $
KMEM 172254Z 30006KT 10SM CLR M07/M12 A3067 RMK AO2 SLP390 T10721117 $
KMEM 172354Z 30006KT 10SM CLR M08/M12 A3065 RMK AO2 SLP386 4/001 T10831122 11056 21083 58008 $
KMEM 180054Z 30004KT 10SM CLR M09/M13 A3064 RMK AO2 SLP383 T10891128 $
KMEM 180154Z 00000KT 10SM CLR M09/M13 A3063 RMK AO2 SLP379 T10891128 $
KMEM 180254Z 00000KT 10SM CLR M09/M13 A3062 RMK AO2 SLP373 T10941128 58012 $
KMEM 180354Z 00000KT 10SM CLR M09/M12 A3061 RMK AO2 SLP372 T10891122 $